sensor_id;sensor_type;location;lat;lon;timestamp;P1;durP1;ratioP1;P2;durP2;ratioP2
13584;SDS011;6863;48.402;9.994;2023-12-28T00:00:29;11.10;;;9.93;;
13584;SDS011;6863;48.402;9.994;2023-12-28T00:02:55;11.10;;;10.00;;
13584;SDS011;6863;48.402;9.994;2023-12-28T00:05:21;10.55;;;9.48;;
13584;SDS011;6863;48.402;9.994;2023-12-28T00:07:47;11.07;;;10.07;;
13584;SDS011;6863;48.402;9.994;2023-12-28T00:10:12;11.00;;;9.97;;
13584;SDS011;6863;48.402;9.994;2023-12-28T00:12:38;11.77;;;10.30;;
13584;SDS011;6863;48.402;9.994;2023-12-28T00:15:03;11.68;;;10.60;;
13584;SDS011;6863;48.402;9.994;2023-12-28T00:17:29;11.15;;;10.13;;
13584;SDS011;6863;48.402;9.994;2023-12-28T00:19:55;11.20;;;10.20;;
13584;SDS011;6863;48.402;9.994;2023-12-28T00:22:20;11.60;;;10.50;;
13584;SDS011;6863;48.402;9.994;2023-12-28T00:24:46;11.30;;;10.20;;
13584;SDS011;6863;48.402;9.994;2023-12-28T00:27:11;11.68;;;10.48;;
13584;SDS011;6863;48.402;9.994;2023-12-28T00:29:37;12.15;;;10.85;;
13584;SDS011;6863;48.402;9.994;2023-12-28T00:32:06;13.27;;;12.00;;
13584;SDS011;6863;48.402;9.994;2023-12-28T00:34:31;11.18;;;10.07;;
13584;SDS011;6863;48.402;9.994;2023-12-28T00:36:57;11.77;;;10.38;;
13584;SDS011;6863;48.402;9.994;2023-12-28T00:39:23;11.90;;;10.43;;
13584;SDS011;6863;48.402;9.994;2023-12-28T00:41:48;12.73;;;10.00;;
13584;SDS011;6863;48.402;9.994;2023-12-28T00:44:14;10.17;;;9.17;;
13584;SDS011;6863;48.402;9.994;2023-12-28T00:46:39;10.73;;;9.47;;
13584;SDS011;6863;48.402;9.994;2023-12-28T00:49:05;10.37;;;9.37;;
13584;SDS011;6863;48.402;9.994;2023-12-28T00:51:30;10.45;;;9.55;;
13584;SDS011;6863;48.402;9.994;2023-12-28T00:53:56;10.07;;;9.05;;
13584;SDS011;6863;48.402;9.994;2023-12-28T00:56:21;9.85;;;9.05;;
13584;SDS011;6863;48.402;9.994;2023-12-28T00:58:47;11.00;;;9.95;;
13584;SDS011;6863;48.402;9.994;2023-12-28T01:01:13;10.77;;;9.73;;
13584;SDS011;6863;48.402;9.994;2023-12-28T01:03:38;10.57;;;9.57;;
13584;SDS011;6863;48.402;9.994;2023-12-28T01:06:07;10.43;;;9.40;;
13584;SDS011;6863;48.402;9.994;2023-12-28T01:08:32;9.88;;;8.95;;
13584;SDS011;6863;48.402;9.994;2023-12-28T01:11:01;9.35;;;8.45;;
13584;SDS011;6863;48.402;9.994;2023-12-28T01:13:27;9.82;;;8.55;;
13584;SDS011;6863;48.402;9.994;2023-12-28T01:15:53;8.80;;;8.00;;
13584;SDS011;6863;48.402;9.994;2023-12-28T01:18:19;9.45;;;8.55;;
13584;SDS011;6863;48.402;9.994;2023-12-28T01:20:45;10.15;;;9.15;;
13584;SDS011;6863;48.402;9.994;2023-12-28T01:23:10;10.02;;;9.07;;
13584;SDS011;6863;48.402;9.994;2023-12-28T01:25:36;9.45;;;8.55;;
13584;SDS011;6863;48.402;9.994;2023-12-28T01:28:01;9.73;;;8.82;;
13584;SDS011;6863;48.402;9.994;2023-12-28T01:30:27;9.10;;;8.20;;
13584;SDS011;6863;48.402;9.994;2023-12-28T01:32:53;9.38;;;8.48;;
13584;SDS011;6863;48.402;9.994;2023-12-28T01:35:19;10.70;;;9.60;;
13584;SDS011;6863;48.402;9.994;2023-12-28T01:37:44;10.10;;;9.10;;
13584;SDS011;6863;48.402;9.994;2023-12-28T01:40:10;10.30;;;9.30;;
13584;SDS011;6863;48.402;9.994;2023-12-28T01:42:36;9.50;;;8.60;;
13584;SDS011;6863;48.402;9.994;2023-12-28T01:45:02;10.33;;;9.30;;
13584;SDS011;6863;48.402;9.994;2023-12-28T01:47:28;10.18;;;9.23;;
13584;SDS011;6863;48.402;9.994;2023-12-28T01:49:54;10.35;;;9.35;;
13584;SDS011;6863;48.402;9.994;2023-12-28T01:52:21;10.20;;;9.35;;
13584;SDS011;6863;48.402;9.994;2023-12-28T01:54:47;10.90;;;9.80;;
13584;SDS011;6863;48.402;9.994;2023-12-28T01:57:14;10.68;;;9.63;;
13584;SDS011;6863;48.402;9.994;2023-12-28T01:59:40;10.65;;;9.65;;
13584;SDS011;6863;48.402;9.994;2023-12-28T02:02:06;10.45;;;9.48;;
13584;SDS011;6863;48.402;9.994;2023-12-28T02:04:32;11.25;;;10.15;;
13584;SDS011;6863;48.402;9.994;2023-12-28T02:07:00;10.25;;;9.35;;
13584;SDS011;6863;48.402;9.994;2023-12-28T02:09:25;10.45;;;9.48;;
13584;SDS011;6863;48.402;9.994;2023-12-28T02:11:52;10.87;;;9.87;;
13584;SDS011;6863;48.402;9.994;2023-12-28T02:14:18;10.88;;;9.88;;
13584;SDS011;6863;48.402;9.994;2023-12-28T02:17:06;10.20;;;9.23;;
13584;SDS011;6863;48.402;9.994;2023-12-28T02:19:39;10.57;;;9.63;;
13584;SDS011;6863;48.402;9.994;2023-12-28T02:22:09;10.45;;;9.32;;
13584;SDS011;6863;48.402;9.994;2023-12-28T02:27:38;11.43;;;10.27;;
13584;SDS011;6863;48.402;9.994;2023-12-28T02:30:05;10.52;;;9.52;;
13584;SDS011;6863;48.402;9.994;2023-12-28T02:32:42;11.05;;;9.98;;
13584;SDS011;6863;48.402;9.994;2023-12-28T02:35:19;10.98;;;9.98;;
13584;SDS011;6863;48.402;9.994;2023-12-28T02:37:55;10.75;;;9.75;;
13584;SDS011;6863;48.402;9.994;2023-12-28T02:40:23;11.27;;;10.33;;
13584;SDS011;6863;48.402;9.994;2023-12-28T02:42:50;10.63;;;9.73;;
13584;SDS011;6863;48.402;9.994;2023-12-28T02:45:15;11.02;;;9.98;;
13584;SDS011;6863;48.402;9.994;2023-12-28T02:47:42;11.13;;;10.13;;
13584;SDS011;6863;48.402;9.994;2023-12-28T02:50:09;11.18;;;10.13;;
13584;SDS011;6863;48.402;9.994;2023-12-28T02:52:34;11.13;;;10.13;;
13584;SDS011;6863;48.402;9.994;2023-12-28T02:55:00;11.18;;;10.02;;
13584;SDS011;6863;48.402;9.994;2023-12-28T02:57:25;11.23;;;10.13;;
13584;SDS011;6863;48.402;9.994;2023-12-28T02:59:51;11.50;;;10.40;;
13584;SDS011;6863;48.402;9.994;2023-12-28T03:02:17;11.30;;;10.30;;
13584;SDS011;6863;48.402;9.994;2023-12-28T03:04:42;10.70;;;9.70;;
13584;SDS011;6863;48.402;9.994;2023-12-28T03:07:08;10.87;;;9.77;;
13584;SDS011;6863;48.402;9.994;2023-12-28T03:09:33;10.47;;;9.47;;
13584;SDS011;6863;48.402;9.994;2023-12-28T03:11:59;10.03;;;9.13;;
13584;SDS011;6863;48.402;9.994;2023-12-28T03:14:25;10.55;;;9.57;;
13584;SDS011;6863;48.402;9.994;2023-12-28T03:16:51;9.90;;;8.90;;
13584;SDS011;6863;48.402;9.994;2023-12-28T03:19:16;10.40;;;9.40;;
13584;SDS011;6863;48.402;9.994;2023-12-28T03:21:42;9.70;;;8.80;;
13584;SDS011;6863;48.402;9.994;2023-12-28T03:24:08;10.02;;;9.02;;
13584;SDS011;6863;48.402;9.994;2023-12-28T03:26:40;9.50;;;8.70;;
13584;SDS011;6863;48.402;9.994;2023-12-28T03:29:06;9.35;;;8.55;;
13584;SDS011;6863;48.402;9.994;2023-12-28T03:31:33;9.98;;;9.02;;
13584;SDS011;6863;48.402;9.994;2023-12-28T03:33:59;9.40;;;8.50;;
13584;SDS011;6863;48.402;9.994;2023-12-28T03:36:24;9.38;;;8.45;;
13584;SDS011;6863;48.402;9.994;2023-12-28T03:38:50;8.63;;;7.90;;
13584;SDS011;6863;48.402;9.994;2023-12-28T03:41:16;9.07;;;8.27;;
13584;SDS011;6863;48.402;9.994;2023-12-28T03:43:45;9.13;;;8.17;;
13584;SDS011;6863;48.402;9.994;2023-12-28T03:46:11;8.18;;;7.43;;
13584;SDS011;6863;48.402;9.994;2023-12-28T03:48:37;8.60;;;7.78;;
13584;SDS011;6863;48.402;9.994;2023-12-28T03:51:03;8.60;;;7.90;;
13584;SDS011;6863;48.402;9.994;2023-12-28T03:53:29;8.45;;;7.68;;
13584;SDS011;6863;48.402;9.994;2023-12-28T03:55:58;9.00;;;8.10;;
13584;SDS011;6863;48.402;9.994;2023-12-28T03:58:24;8.55;;;7.68;;
13584;SDS011;6863;48.402;9.994;2023-12-28T04:00:50;8.50;;;7.70;;
13584;SDS011;6863;48.402;9.994;2023-12-28T04:03:16;9.03;;;8.13;;
13584;SDS011;6863;48.402;9.994;2023-12-28T04:05:42;8.80;;;8.00;;
13584;SDS011;6863;48.402;9.994;2023-12-28T04:08:08;8.85;;;7.95;;
13584;SDS011;6863;48.402;9.994;2023-12-28T04:10:34;9.02;;;8.18;;
13584;SDS011;6863;48.402;9.994;2023-12-28T04:13:02;9.10;;;8.20;;
13584;SDS011;6863;48.402;9.994;2023-12-28T04:15:27;8.80;;;8.00;;
13584;SDS011;6863;48.402;9.994;2023-12-28T04:17:53;8.65;;;7.82;;
13584;SDS011;6863;48.402;9.994;2023-12-28T04:20:19;9.43;;;8.52;;
13584;SDS011;6863;48.402;9.994;2023-12-28T04:22:44;9.20;;;8.33;;
13584;SDS011;6863;48.402;9.994;2023-12-28T04:25:10;9.70;;;8.70;;
13584;SDS011;6863;48.402;9.994;2023-12-28T04:27:36;9.27;;;8.43;;
13584;SDS011;6863;48.402;9.994;2023-12-28T04:30:03;9.38;;;8.55;;
13584;SDS011;6863;48.402;9.994;2023-12-28T04:32:33;8.40;;;7.70;;
13584;SDS011;6863;48.402;9.994;2023-12-28T04:34:58;9.25;;;8.45;;
13584;SDS011;6863;48.402;9.994;2023-12-28T04:37:24;9.20;;;8.40;;
13584;SDS011;6863;48.402;9.994;2023-12-28T04:39:51;8.82;;;8.02;;
13584;SDS011;6863;48.402;9.994;2023-12-28T04:42:18;8.95;;;8.10;;
13584;SDS011;6863;48.402;9.994;2023-12-28T04:44:44;8.77;;;7.97;;
13584;SDS011;6863;48.402;9.994;2023-12-28T04:47:09;9.30;;;8.30;;
13584;SDS011;6863;48.402;9.994;2023-12-28T04:49:35;11.10;;;8.87;;
13584;SDS011;6863;48.402;9.994;2023-12-28T04:52:00;9.00;;;8.20;;
13584;SDS011;6863;48.402;9.994;2023-12-28T04:54:26;9.30;;;8.40;;
13584;SDS011;6863;48.402;9.994;2023-12-28T04:56:52;9.05;;;8.25;;
13584;SDS011;6863;48.402;9.994;2023-12-28T04:59:18;8.68;;;7.88;;
13584;SDS011;6863;48.402;9.994;2023-12-28T05:01:43;9.13;;;8.20;;
13584;SDS011;6863;48.402;9.994;2023-12-28T05:04:09;8.53;;;7.73;;
13584;SDS011;6863;48.402;9.994;2023-12-28T05:06:35;9.27;;;7.95;;
13584;SDS011;6863;48.402;9.994;2023-12-28T05:09:01;7.72;;;6.95;;
13584;SDS011;6863;48.402;9.994;2023-12-28T05:11:27;7.73;;;7.03;;
13584;SDS011;6863;48.402;9.994;2023-12-28T05:13:52;8.73;;;7.73;;
13584;SDS011;6863;48.402;9.994;2023-12-28T05:16:18;8.63;;;7.82;;
13584;SDS011;6863;48.402;9.994;2023-12-28T05:18:45;9.43;;;8.55;;
13584;SDS011;6863;48.402;9.994;2023-12-28T05:21:11;9.25;;;8.30;;
13584;SDS011;6863;48.402;9.994;2023-12-28T05:23:37;8.93;;;8.13;;
13584;SDS011;6863;48.402;9.994;2023-12-28T05:26:03;8.80;;;8.00;;
13584;SDS011;6863;48.402;9.994;2023-12-28T05:28:30;9.07;;;8.18;;
13584;SDS011;6863;48.402;9.994;2023-12-28T05:30:55;9.37;;;8.47;;
13584;SDS011;6863;48.402;9.994;2023-12-28T05:33:23;9.40;;;8.50;;
13584;SDS011;6863;48.402;9.994;2023-12-28T05:35:49;8.63;;;7.78;;
13584;SDS011;6863;48.402;9.994;2023-12-28T05:38:15;10.00;;;8.90;;
13584;SDS011;6863;48.402;9.994;2023-12-28T05:40:41;9.10;;;8.27;;
13584;SDS011;6863;48.402;9.994;2023-12-28T05:43:06;9.40;;;8.50;;
13584;SDS011;6863;48.402;9.994;2023-12-28T05:45:32;8.77;;;7.97;;
13584;SDS011;6863;48.402;9.994;2023-12-28T05:47:57;9.18;;;8.27;;
13584;SDS011;6863;48.402;9.994;2023-12-28T05:50:23;9.77;;;8.87;;
13584;SDS011;6863;48.402;9.994;2023-12-28T05:52:48;9.57;;;8.57;;
13584;SDS011;6863;48.402;9.994;2023-12-28T05:55:14;9.60;;;8.70;;
13584;SDS011;6863;48.402;9.994;2023-12-28T05:57:39;9.33;;;8.43;;
13584;SDS011;6863;48.402;9.994;2023-12-28T06:00:05;9.52;;;8.55;;
13584;SDS011;6863;48.402;9.994;2023-12-28T06:02:31;9.27;;;8.38;;
13584;SDS011;6863;48.402;9.994;2023-12-28T06:04:57;9.60;;;8.47;;
13584;SDS011;6863;48.402;9.994;2023-12-28T06:07:22;9.50;;;8.53;;
13584;SDS011;6863;48.402;9.994;2023-12-28T06:09:48;8.60;;;7.80;;
13584;SDS011;6863;48.402;9.994;2023-12-28T06:12:13;10.90;;;9.80;;
13584;SDS011;6863;48.402;9.994;2023-12-28T06:14:39;8.87;;;8.00;;
13584;SDS011;6863;48.402;9.994;2023-12-28T06:17:05;8.70;;;7.90;;
13584;SDS011;6863;48.402;9.994;2023-12-28T06:19:30;8.87;;;8.07;;
13584;SDS011;6863;48.402;9.994;2023-12-28T06:21:56;8.82;;;8.02;;
13584;SDS011;6863;48.402;9.994;2023-12-28T06:24:23;10.15;;;9.15;;
13584;SDS011;6863;48.402;9.994;2023-12-28T06:26:49;9.13;;;8.23;;
13584;SDS011;6863;48.402;9.994;2023-12-28T06:29:14;9.07;;;8.27;;
13584;SDS011;6863;48.402;9.994;2023-12-28T06:31:40;9.10;;;8.20;;
13584;SDS011;6863;48.402;9.994;2023-12-28T06:34:06;8.90;;;8.00;;
13584;SDS011;6863;48.402;9.994;2023-12-28T06:36:32;8.83;;;7.60;;
13584;SDS011;6863;48.402;9.994;2023-12-28T06:38:58;8.55;;;7.63;;
13584;SDS011;6863;48.402;9.994;2023-12-28T06:41:24;8.88;;;8.07;;
13584;SDS011;6863;48.402;9.994;2023-12-28T06:43:51;7.88;;;7.15;;
13584;SDS011;6863;48.402;9.994;2023-12-28T06:46:17;7.47;;;6.67;;
13584;SDS011;6863;48.402;9.994;2023-12-28T06:48:43;7.60;;;6.80;;
13584;SDS011;6863;48.402;9.994;2023-12-28T06:51:08;7.38;;;6.72;;
13584;SDS011;6863;48.402;9.994;2023-12-28T06:53:35;8.13;;;7.33;;
13584;SDS011;6863;48.402;9.994;2023-12-28T06:56:00;8.53;;;7.77;;
13584;SDS011;6863;48.402;9.994;2023-12-28T06:58:26;9.50;;;8.47;;
13584;SDS011;6863;48.402;9.994;2023-12-28T07:00:51;9.50;;;8.47;;
13584;SDS011;6863;48.402;9.994;2023-12-28T07:03:17;9.52;;;8.52;;
13584;SDS011;6863;48.402;9.994;2023-12-28T07:05:42;8.80;;;7.90;;
13584;SDS011;6863;48.402;9.994;2023-12-28T07:08:08;8.27;;;7.27;;
13584;SDS011;6863;48.402;9.994;2023-12-28T07:10:33;9.03;;;8.17;;
13584;SDS011;6863;48.402;9.994;2023-12-28T07:12:59;8.53;;;7.73;;
13584;SDS011;6863;48.402;9.994;2023-12-28T07:15:25;8.90;;;8.10;;
13584;SDS011;6863;48.402;9.994;2023-12-28T07:17:50;8.82;;;8.02;;
13584;SDS011;6863;48.402;9.994;2023-12-28T07:20:16;8.25;;;7.55;;
13584;SDS011;6863;48.402;9.994;2023-12-28T07:22:41;8.68;;;7.93;;
13584;SDS011;6863;48.402;9.994;2023-12-28T07:25:07;7.70;;;7.10;;
13584;SDS011;6863;48.402;9.994;2023-12-28T07:27:35;8.50;;;7.80;;
13584;SDS011;6863;48.402;9.994;2023-12-28T07:30:02;8.23;;;7.43;;
13584;SDS011;6863;48.402;9.994;2023-12-28T07:32:31;8.57;;;7.47;;
13584;SDS011;6863;48.402;9.994;2023-12-28T07:34:56;7.95;;;7.18;;
13584;SDS011;6863;48.402;9.994;2023-12-28T07:37:23;8.23;;;7.47;;
13584;SDS011;6863;48.402;9.994;2023-12-28T07:39:49;8.23;;;7.10;;
13584;SDS011;6863;48.402;9.994;2023-12-28T07:42:14;8.60;;;7.67;;
13584;SDS011;6863;48.402;9.994;2023-12-28T07:44:40;8.23;;;7.43;;
13584;SDS011;6863;48.402;9.994;2023-12-28T07:47:06;7.78;;;7.07;;
13584;SDS011;6863;48.402;9.994;2023-12-28T07:49:32;7.68;;;6.88;;
13584;SDS011;6863;48.402;9.994;2023-12-28T07:51:57;7.50;;;6.80;;
13584;SDS011;6863;48.402;9.994;2023-12-28T07:54:23;7.35;;;6.75;;
13584;SDS011;6863;48.402;9.994;2023-12-28T07:56:49;7.50;;;6.80;;
13584;SDS011;6863;48.402;9.994;2023-12-28T07:59:14;7.85;;;7.03;;
13584;SDS011;6863;48.402;9.994;2023-12-28T08:01:40;7.77;;;7.07;;
13584;SDS011;6863;48.402;9.994;2023-12-28T08:04:05;9.00;;;7.30;;
13584;SDS011;6863;48.402;9.994;2023-12-28T08:06:31;7.80;;;7.10;;
13584;SDS011;6863;48.402;9.994;2023-12-28T08:08:58;8.35;;;7.55;;
13584;SDS011;6863;48.402;9.994;2023-12-28T08:11:25;8.07;;;7.28;;
13584;SDS011;6863;48.402;9.994;2023-12-28T08:13:51;7.70;;;7.00;;
13584;SDS011;6863;48.402;9.994;2023-12-28T08:16:17;9.07;;;7.37;;
13584;SDS011;6863;48.402;9.994;2023-12-28T08:18:42;8.77;;;7.90;;
13584;SDS011;6863;48.402;9.994;2023-12-28T08:21:08;8.18;;;7.38;;
13584;SDS011;6863;48.402;9.994;2023-12-28T08:23:33;8.33;;;7.47;;
13584;SDS011;6863;48.402;9.994;2023-12-28T08:25:59;7.77;;;6.97;;
13584;SDS011;6863;48.402;9.994;2023-12-28T08:28:25;8.37;;;7.67;;
13584;SDS011;6863;48.402;9.994;2023-12-28T08:30:50;7.40;;;6.70;;
13584;SDS011;6863;48.402;9.994;2023-12-28T08:33:16;8.47;;;6.90;;
13584;SDS011;6863;48.402;9.994;2023-12-28T08:35:41;8.30;;;7.40;;
13584;SDS011;6863;48.402;9.994;2023-12-28T08:38:07;7.53;;;6.83;;
13584;SDS011;6863;48.402;9.994;2023-12-28T08:40:33;7.30;;;6.65;;
13584;SDS011;6863;48.402;9.994;2023-12-28T08:42:58;7.30;;;6.60;;
13584;SDS011;6863;48.402;9.994;2023-12-28T08:45:24;7.18;;;6.47;;
13584;SDS011;6863;48.402;9.994;2023-12-28T08:47:50;7.28;;;6.25;;
13584;SDS011;6863;48.402;9.994;2023-12-28T08:50:15;6.50;;;6.00;;
13584;SDS011;6863;48.402;9.994;2023-12-28T08:52:41;7.00;;;6.30;;
13584;SDS011;6863;48.402;9.994;2023-12-28T08:55:06;7.00;;;5.82;;
13584;SDS011;6863;48.402;9.994;2023-12-28T08:57:32;6.57;;;5.97;;
13584;SDS011;6863;48.402;9.994;2023-12-28T08:59:58;6.15;;;5.65;;
13584;SDS011;6863;48.402;9.994;2023-12-28T09:02:27;6.95;;;6.28;;
13584;SDS011;6863;48.402;9.994;2023-12-28T09:04:54;5.97;;;5.47;;
13584;SDS011;6863;48.402;9.994;2023-12-28T09:07:19;6.30;;;5.78;;
13584;SDS011;6863;48.402;9.994;2023-12-28T09:09:45;5.93;;;5.40;;
13584;SDS011;6863;48.402;9.994;2023-12-28T09:12:11;5.70;;;5.20;;
13584;SDS011;6863;48.402;9.994;2023-12-28T09:14:37;6.00;;;5.32;;
13584;SDS011;6863;48.402;9.994;2023-12-28T09:17:02;6.40;;;5.60;;
13584;SDS011;6863;48.402;9.994;2023-12-28T09:19:28;6.27;;;5.50;;
13584;SDS011;6863;48.402;9.994;2023-12-28T09:21:54;6.30;;;5.80;;
13584;SDS011;6863;48.402;9.994;2023-12-28T09:24:19;6.00;;;5.47;;
13584;SDS011;6863;48.402;9.994;2023-12-28T09:26:45;6.10;;;5.60;;
13584;SDS011;6863;48.402;9.994;2023-12-28T09:29:10;6.43;;;5.53;;
13584;SDS011;6863;48.402;9.994;2023-12-28T09:31:37;5.82;;;5.28;;
13584;SDS011;6863;48.402;9.994;2023-12-28T09:34:03;6.15;;;5.65;;
13584;SDS011;6863;48.402;9.994;2023-12-28T09:36:29;6.05;;;5.55;;
13584;SDS011;6863;48.402;9.994;2023-12-28T09:38:55;6.88;;;6.07;;
13584;SDS011;6863;48.402;9.994;2023-12-28T09:41:21;6.53;;;5.93;;
13584;SDS011;6863;48.402;9.994;2023-12-28T09:43:53;6.60;;;6.00;;
13584;SDS011;6863;48.402;9.994;2023-12-28T09:46:23;6.47;;;5.78;;
13584;SDS011;6863;48.402;9.994;2023-12-28T09:48:51;6.33;;;5.73;;
13584;SDS011;6863;48.402;9.994;2023-12-28T09:51:19;6.68;;;5.68;;
13584;SDS011;6863;48.402;9.994;2023-12-28T09:53:44;7.28;;;5.88;;
13584;SDS011;6863;48.402;9.994;2023-12-28T09:56:11;6.07;;;5.47;;
13584;SDS011;6863;48.402;9.994;2023-12-28T09:58:39;6.32;;;5.65;;
13584;SDS011;6863;48.402;9.994;2023-12-28T10:01:05;6.22;;;5.63;;
13584;SDS011;6863;48.402;9.994;2023-12-28T10:03:32;6.15;;;5.65;;
13584;SDS011;6863;48.402;9.994;2023-12-28T10:05:58;6.10;;;5.60;;
13584;SDS011;6863;48.402;9.994;2023-12-28T10:08:23;6.60;;;6.00;;
13584;SDS011;6863;48.402;9.994;2023-12-28T10:10:49;6.57;;;5.97;;
13584;SDS011;6863;48.402;9.994;2023-12-28T10:13:19;7.00;;;6.30;;
13584;SDS011;6863;48.402;9.994;2023-12-28T10:15:46;6.43;;;5.90;;
13584;SDS011;6863;48.402;9.994;2023-12-28T10:18:12;6.93;;;6.32;;
13584;SDS011;6863;48.402;9.994;2023-12-28T10:20:38;6.80;;;6.13;;
13584;SDS011;6863;48.402;9.994;2023-12-28T10:23:04;6.13;;;5.60;;
13584;SDS011;6863;48.402;9.994;2023-12-28T10:25:31;6.73;;;6.13;;
13584;SDS011;6863;48.402;9.994;2023-12-28T10:27:57;6.72;;;6.07;;
13584;SDS011;6863;48.402;9.994;2023-12-28T10:30:28;6.82;;;6.22;;
13584;SDS011;6863;48.402;9.994;2023-12-28T10:32:55;6.50;;;5.85;;
13584;SDS011;6863;48.402;9.994;2023-12-28T10:35:20;6.43;;;5.90;;
13584;SDS011;6863;48.402;9.994;2023-12-28T10:37:46;6.30;;;5.70;;
13584;SDS011;6863;48.402;9.994;2023-12-28T10:40:16;6.72;;;6.10;;
13584;SDS011;6863;48.402;9.994;2023-12-28T10:42:54;6.32;;;5.80;;
13584;SDS011;6863;48.402;9.994;2023-12-28T10:45:24;6.93;;;6.23;;
13584;SDS011;6863;48.402;9.994;2023-12-28T10:48:12;6.63;;;5.97;;
13584;SDS011;6863;48.402;9.994;2023-12-28T10:50:40;6.82;;;6.20;;
13584;SDS011;6863;48.402;9.994;2023-12-28T10:56:20;7.13;;;6.45;;
13584;SDS011;6863;48.402;9.994;2023-12-28T10:58:49;6.30;;;5.70;;
13584;SDS011;6863;48.402;9.994;2023-12-28T11:01:34;6.43;;;5.90;;
13584;SDS011;6863;48.402;9.994;2023-12-28T11:04:05;7.10;;;6.43;;
13584;SDS011;6863;48.402;9.994;2023-12-28T11:06:35;6.60;;;6.00;;
13584;SDS011;6863;48.402;9.994;2023-12-28T11:09:02;6.95;;;6.32;;
13584;SDS011;6863;48.402;9.994;2023-12-28T11:11:31;6.90;;;6.22;;
13584;SDS011;6863;48.402;9.994;2023-12-28T11:13:59;6.43;;;5.82;;
13584;SDS011;6863;48.402;9.994;2023-12-28T11:16:25;7.77;;;6.97;;
13584;SDS011;6863;48.402;9.994;2023-12-28T11:18:52;7.20;;;6.50;;
13584;SDS011;6863;48.402;9.994;2023-12-28T11:21:19;9.73;;;8.73;;
13584;SDS011;6863;48.402;9.994;2023-12-28T11:23:45;10.40;;;9.35;;
13584;SDS011;6863;48.402;9.994;2023-12-28T11:26:19;7.65;;;6.68;;
13584;SDS011;6863;48.402;9.994;2023-12-28T11:28:46;9.20;;;8.13;;
13584;SDS011;6863;48.402;9.994;2023-12-28T11:31:15;7.60;;;6.83;;
13584;SDS011;6863;48.402;9.994;2023-12-28T11:36:10;9.02;;;8.13;;
13584;SDS011;6863;48.402;9.994;2023-12-28T11:38:36;7.97;;;7.20;;
13584;SDS011;6863;48.402;9.994;2023-12-28T11:41:03;7.35;;;6.70;;
13584;SDS011;6863;48.402;9.994;2023-12-28T11:43:29;7.97;;;7.20;;
13584;SDS011;6863;48.402;9.994;2023-12-28T11:46:00;6.97;;;6.27;;
13584;SDS011;6863;48.402;9.994;2023-12-28T11:48:30;6.95;;;6.30;;
13584;SDS011;6863;48.402;9.994;2023-12-28T11:50:59;7.03;;;6.32;;
13584;SDS011;6863;48.402;9.994;2023-12-28T11:53:25;7.50;;;6.80;;
13584;SDS011;6863;48.402;9.994;2023-12-28T11:55:51;6.25;;;5.70;;
13584;SDS011;6863;48.402;9.994;2023-12-28T11:58:24;6.22;;;5.65;;
13584;SDS011;6863;48.402;9.994;2023-12-28T12:00:49;6.47;;;5.87;;
13584;SDS011;6863;48.402;9.994;2023-12-28T12:03:15;6.83;;;5.83;;
13584;SDS011;6863;48.402;9.994;2023-12-28T12:05:40;6.35;;;5.80;;
13584;SDS011;6863;48.402;9.994;2023-12-28T12:08:06;5.65;;;5.15;;
13584;SDS011;6863;48.402;9.994;2023-12-28T12:10:36;5.78;;;5.28;;
13584;SDS011;6863;48.402;9.994;2023-12-28T12:13:01;6.85;;;6.25;;
13584;SDS011;6863;48.402;9.994;2023-12-28T12:15:30;6.00;;;5.50;;
13584;SDS011;6863;48.402;9.994;2023-12-28T12:17:55;6.70;;;6.05;;
13584;SDS011;6863;48.402;9.994;2023-12-28T12:20:22;6.68;;;6.07;;
13584;SDS011;6863;48.402;9.994;2023-12-28T12:22:51;6.50;;;5.90;;
13584;SDS011;6863;48.402;9.994;2023-12-28T12:25:17;8.63;;;6.22;;
13584;SDS011;6863;48.402;9.994;2023-12-28T12:27:44;6.45;;;5.85;;
13584;SDS011;6863;48.402;9.994;2023-12-28T12:30:10;7.60;;;6.85;;
13584;SDS011;6863;48.402;9.994;2023-12-28T12:32:36;6.93;;;6.25;;
13584;SDS011;6863;48.402;9.994;2023-12-28T12:35:05;6.78;;;6.07;;
13584;SDS011;6863;48.402;9.994;2023-12-28T12:37:31;7.25;;;6.05;;
13584;SDS011;6863;48.402;9.994;2023-12-28T12:39:57;7.85;;;7.10;;
13584;SDS011;6863;48.402;9.994;2023-12-28T12:42:22;6.40;;;5.90;;
13584;SDS011;6863;48.402;9.994;2023-12-28T12:44:48;6.80;;;6.10;;
13584;SDS011;6863;48.402;9.994;2023-12-28T12:47:13;6.07;;;5.47;;
13584;SDS011;6863;48.402;9.994;2023-12-28T12:49:39;6.30;;;5.70;;
13584;SDS011;6863;48.402;9.994;2023-12-28T12:52:08;6.80;;;6.17;;
13584;SDS011;6863;48.402;9.994;2023-12-28T12:54:33;6.57;;;5.97;;
13584;SDS011;6863;48.402;9.994;2023-12-28T12:56:59;6.18;;;5.68;;
13584;SDS011;6863;48.402;9.994;2023-12-28T12:59:24;6.30;;;5.70;;
13584;SDS011;6863;48.402;9.994;2023-12-28T13:01:51;6.72;;;6.13;;
13584;SDS011;6863;48.402;9.994;2023-12-28T13:04:18;6.32;;;5.72;;
13584;SDS011;6863;48.402;9.994;2023-12-28T13:06:44;6.57;;;5.97;;
13584;SDS011;6863;48.402;9.994;2023-12-28T13:09:10;6.22;;;5.65;;
13584;SDS011;6863;48.402;9.994;2023-12-28T13:11:36;6.78;;;6.13;;
13584;SDS011;6863;48.402;9.994;2023-12-28T13:14:03;6.63;;;6.03;;
13584;SDS011;6863;48.402;9.994;2023-12-28T13:16:29;6.32;;;5.72;;
13584;SDS011;6863;48.402;9.994;2023-12-28T13:18:55;5.90;;;5.30;;
13584;SDS011;6863;48.402;9.994;2023-12-28T13:21:20;5.83;;;5.30;;
13584;SDS011;6863;48.402;9.994;2023-12-28T13:23:46;5.65;;;5.15;;
13584;SDS011;6863;48.402;9.994;2023-12-28T13:26:11;5.80;;;5.33;;
13584;SDS011;6863;48.402;9.994;2023-12-28T13:28:37;6.10;;;5.50;;
13584;SDS011;6863;48.402;9.994;2023-12-28T13:31:03;6.15;;;5.65;;
13584;SDS011;6863;48.402;9.994;2023-12-28T13:33:28;12.80;;;6.57;;
13584;SDS011;6863;48.402;9.994;2023-12-28T13:35:54;5.63;;;5.00;;
13584;SDS011;6863;48.402;9.994;2023-12-28T13:38:20;6.13;;;5.50;;
13584;SDS011;6863;48.402;9.994;2023-12-28T13:40:46;5.80;;;5.30;;
13584;SDS011;6863;48.402;9.994;2023-12-28T13:43:12;6.30;;;5.53;;
13584;SDS011;6863;48.402;9.994;2023-12-28T13:45:37;6.25;;;5.65;;
13584;SDS011;6863;48.402;9.994;2023-12-28T13:48:03;5.87;;;5.37;;
13584;SDS011;6863;48.402;9.994;2023-12-28T13:50:29;5.57;;;5.07;;
13584;SDS011;6863;48.402;9.994;2023-12-28T13:52:55;6.00;;;5.50;;
13584;SDS011;6863;48.402;9.994;2023-12-28T13:55:21;6.60;;;6.00;;
13584;SDS011;6863;48.402;9.994;2023-12-28T13:57:47;6.10;;;5.50;;
13584;SDS011;6863;48.402;9.994;2023-12-28T14:02:38;6.33;;;5.63;;
13584;SDS011;6863;48.402;9.994;2023-12-28T14:05:04;6.22;;;5.30;;
13584;SDS011;6863;48.402;9.994;2023-12-28T14:07:30;6.50;;;5.85;;
13584;SDS011;6863;48.402;9.994;2023-12-28T14:09:56;6.05;;;5.45;;
13584;SDS011;6863;48.402;9.994;2023-12-28T14:12:21;6.37;;;5.50;;
13584;SDS011;6863;48.402;9.994;2023-12-28T14:14:47;6.20;;;5.60;;
13584;SDS011;6863;48.402;9.994;2023-12-28T14:17:13;6.15;;;5.65;;
13584;SDS011;6863;48.402;9.994;2023-12-28T14:19:40;6.18;;;5.57;;
13584;SDS011;6863;48.402;9.994;2023-12-28T14:22:06;7.43;;;5.90;;
13584;SDS011;6863;48.402;9.994;2023-12-28T14:24:32;6.63;;;6.03;;
13584;SDS011;6863;48.402;9.994;2023-12-28T14:26:58;6.13;;;5.63;;
13584;SDS011;6863;48.402;9.994;2023-12-28T14:29:24;6.53;;;5.93;;
13584;SDS011;6863;48.402;9.994;2023-12-28T14:31:50;7.13;;;6.43;;
13584;SDS011;6863;48.402;9.994;2023-12-28T14:34:16;6.35;;;5.75;;
13584;SDS011;6863;48.402;9.994;2023-12-28T14:36:43;6.70;;;6.10;;
13584;SDS011;6863;48.402;9.994;2023-12-28T14:39:14;7.15;;;6.47;;
13584;SDS011;6863;48.402;9.994;2023-12-28T14:41:40;8.20;;;6.97;;
13584;SDS011;6863;48.402;9.994;2023-12-28T14:44:05;6.93;;;6.23;;
13584;SDS011;6863;48.402;9.994;2023-12-28T14:46:31;7.00;;;6.40;;
13584;SDS011;6863;48.402;9.994;2023-12-28T14:48:57;7.18;;;6.40;;
13584;SDS011;6863;48.402;9.994;2023-12-28T14:51:22;6.73;;;6.07;;
13584;SDS011;6863;48.402;9.994;2023-12-28T14:53:48;6.77;;;6.13;;
13584;SDS011;6863;48.402;9.994;2023-12-28T14:56:13;6.75;;;6.15;;
13584;SDS011;6863;48.402;9.994;2023-12-28T14:58:39;7.50;;;6.80;;
13584;SDS011;6863;48.402;9.994;2023-12-28T15:01:10;8.27;;;7.32;;
13584;SDS011;6863;48.402;9.994;2023-12-28T15:03:36;6.75;;;6.20;;